Pep, NM

4:28 AM MDT on July 28, 2014 (GMT -0600)
Cannon Air Force Base (KCVS) Elev 4295 ft | 34.38 °N, 103.32 °W | Change Station

Current weather conditions updated 30 minutes ago

Partly Cloudy
Partly Cloudy
70 °F
Feels Like 70 °F
N
20
Wind Variable Wind from NNE

Today is forecast to be Cooler than yesterday. Thunderstorms early tonight.

Today
High -- | Low -- °F
--% Chance of Precip.
Yesterday
High -- | Low -- °F
Precip. -- in
6:02 AM 7:56 PM
New Moon, 2% visible
Pressure 30.09 in
Visibility 10.0 miles
Clouds Few 12000 ft
Dew Point 58 °F
Humidity 66%
Rainfall 0.00 in
Snow Depth Not available.
UV 0 out of 12
Pollen 4.90 out of 12
Air Quality Not available.
Flu Activity Not available.
METAR KCVS 280958Z AUTO 03017KT 10SM FEW120 21/15 A3029 RMK AO2 SLP190 T02110145 $

More Conditions Fewer Conditions

Pressure 30.09 in
Visibility 10.0 miles
Clouds Few 12000 ft
Dew Point 58 °F
Humidity 66%
Rainfall 0.00 in
Snow Depth Not available.
UV 0 out of 12
Pollen 4.90 out of 12
Air Quality Not available.
Flu Activity Not available.
METAR KCVS 280958Z AUTO 03017KT 10SM FEW120 21/15 A3029 RMK AO2 SLP190 T02110145 $

More Conditions Fewer Conditions

10-Day Weather Forecast

Almanac

Astronomy

Jul. 28, 2014 Rise Set
Actual Time 6:02 AM MDT 7:56 PM MDT
Civil Twilight 5:34 AM MDT 8:24 PM MDT
Nautical Twilight 5:01 AM MDT 8:57 PM MDT
Astronomical Twilight 4:25 AM MDT 9:33 PM MDT
Moon 7:38 AM MDT 8:48 PM MDT
Length of Visible Light 14h 49m
Length of Day
13h 54m
Tomorrow will be 1m 28s shorter.
New Moon, 2% of the Moon is Illuminated
Today
New Moon
Aug 3
First Quarter
Aug 10
Full
Aug 17
Last Quarter
Aug 25
New

Today's Extremes

State Highs State Lows

Community

WunderPhotos

Upload Photos

1,738,292 photos uploaded!

Nearby

Snow Depth

Station Depth Elevation
Sierra Blanca 2 in 10280 ft
Wesner Springs 3 in 11120 ft
Santa Fe 2 in 11445 ft
Gallegos Peak 1 in 9800 ft
Tolby 0 in 10180 ft

Earthquake Activity

City Distance Mag. Time & Date
No recent earthquake activity has been reported nearby.
Minimum magnitude displayed is 2.5.

Coastal Water Temperatures

Place Temperature
No Stations Reporting

Nearby Weather Stations

Station Location Temp. Dew Point Humidity Wind Precip. Elev Updated Type
WT_Meso 2 MI. SW OF DORA, NM, Dora, NM 70 °F 63 °F 82% ENE  at  10 mph 0.00 in / hr 4339 ft 3:25 AM MDT MADIS
MesoWest WILLOW WELLS , Caprock, NM - - - ENE  at  3 mph 0.00 in / hr 4537 ft 3:00 AM MDT MADIS

Show More Stations Show Fewer Stations